TimeMDT,TemperatureF,Dew PointF,Humidity,Sea Level PressureIn,VisibilityMPH,Wind Direction,Wind SpeedMPH,Gust SpeedMPH,PrecipitationIn,Events,Conditions,WindDirDegrees,DateUTC
12:15 AM,71.6,53.6,53,30.20,10.0,SW,6.9,-,N/A,,Clear,220,2013-08-30 06:15:00
12:35 AM,69.8,53.6,56,30.20,10.0,SSW,5.8,-,N/A,,Clear,210,2013-08-30 06:35:00
12:55 AM,69.8,53.6,56,30.19,10.0,SSW,5.8,-,N/A,,Clear,200,2013-08-30 06:55:00
1:15 AM,69.8,53.6,56,30.19,10.0,SSW,6.9,-,N/A,,Clear,210,2013-08-30 07:15:00
1:35 AM,69.8,53.6,56,30.19,10.0,SSW,6.9,-,N/A,,Clear,210,2013-08-30 07:35:00
1:55 AM,68.0,51.8,56,30.19,10.0,SSW,6.9,-,N/A,,Clear,210,2013-08-30 07:55:00
2:15 AM,68.0,51.8,56,30.19,10.0,WSW,8.1,-,N/A,,Clear,250,2013-08-30 08:15:00
2:35 AM,68.0,51.8,56,30.19,10.0,SW,8.1,-,N/A,,Clear,230,2013-08-30 08:35:00
2:55 AM,66.2,51.8,60,30.19,10.0,SW,5.8,-,N/A,,Clear,230,2013-08-30 08:55:00
3:15 AM,66.2,51.8,60,30.18,10.0,WSW,6.9,-,N/A,,Clear,240,2013-08-30 09:15:00
3:35 AM,66.2,51.8,60,30.18,10.0,WSW,5.8,-,N/A,,Clear,240,2013-08-30 09:35:00
3:55 AM,66.2,51.8,60,30.18,10.0,SW,6.9,-,N/A,,Clear,230,2013-08-30 09:55:00
4:15 AM,66.2,51.8,60,30.18,10.0,SW,8.1,-,N/A,,Clear,230,2013-08-30 10:15:00
4:35 AM,66.2,51.8,60,30.18,10.0,SW,9.2,-,N/A,,Clear,230,2013-08-30 10:35:00
4:55 AM,68.0,51.8,56,30.18,10.0,SW,9.2,-,N/A,,Clear,230,2013-08-30 10:55:00
5:15 AM,68.0,51.8,56,30.18,10.0,SW,9.2,-,N/A,,Clear,230,2013-08-30 11:15:00
5:35 AM,66.2,51.8,60,30.19,10.0,SW,9.2,-,N/A,,Clear,230,2013-08-30 11:35:00
5:55 AM,66.2,51.8,60,30.19,10.0,WSW,9.2,-,N/A,,Clear,240,2013-08-30 11:55:00
6:15 AM,66.2,51.8,60,30.20,10.0,SW,8.1,-,N/A,,Clear,230,2013-08-30 12:15:00
6:35 AM,64.4,51.8,64,30.20,10.0,SW,8.1,-,N/A,,Clear,220,2013-08-30 12:35:00
6:55 AM,66.2,51.8,60,30.20,10.0,WSW,6.9,-,N/A,,Clear,240,2013-08-30 12:55:00
7:15 AM,68.0,51.8,56,30.20,10.0,WSW,8.1,-,N/A,,Clear,250,2013-08-30 13:15:00
7:35 AM,71.6,51.8,50,30.21,10.0,WSW,11.5,-,N/A,,Clear,250,2013-08-30 13:35:00
7:55 AM,73.4,53.6,50,30.21,10.0,WSW,11.5,-,N/A,,Clear,250,2013-08-30 13:55:00
8:15 AM,75.2,53.6,47,30.21,10.0,SW,12.7,-,N/A,,Clear,230,2013-08-30 14:15:00
8:35 AM,77.0,53.6,44,30.21,10.0,WSW,13.8,-,N/A,,Clear,240,2013-08-30 14:35:00
8:55 AM,78.8,55.4,44,30.21,10.0,SW,12.7,-,N/A,,Clear,230,2013-08-30 14:55:00
9:15 AM,80.6,55.4,42,30.21,10.0,SW,13.8,-,N/A,,Clear,230,2013-08-30 15:15:00
9:35 AM,82.4,55.4,39,30.21,10.0,WSW,11.5,-,N/A,,Clear,240,2013-08-30 15:35:00
9:55 AM,84.2,57.2,40,30.21,10.0,SSW,12.7,16.1,N/A,,Clear,210,2013-08-30 15:55:00
10:15 AM,86.0,57.2,37,30.20,10.0,SSW,13.8,-,N/A,,Clear,210,2013-08-30 16:15:00
10:35 AM,87.8,57.2,35,30.21,10.0,WSW,12.7,16.1,N/A,,Clear,240,2013-08-30 16:35:00
10:55 AM,87.8,57.2,35,30.20,10.0,SW,9.2,-,N/A,,Clear,230,2013-08-30 16:55:00
11:15 AM,89.6,57.2,33,30.20,10.0,SSW,10.4,-,N/A,,Clear,210,2013-08-30 17:15:00
11:35 AM,89.6,57.2,33,30.19,10.0,SSW,11.5,19.6,N/A,,Clear,200,2013-08-30 17:35:00
11:55 AM,91.4,59.0,34,30.19,10.0,SW,11.5,20.7,N/A,,Clear,220,2013-08-30 17:55:00
12:15 PM,91.4,57.2,31,30.18,10.0,SW,11.5,-,N/A,,Clear,230,2013-08-30 18:15:00
12:35 PM,91.4,57.2,31,30.17,10.0,SSW,9.2,-,N/A,,Clear,200,2013-08-30 18:35:00
12:55 PM,91.4,57.2,31,30.17,10.0,WSW,5.8,16.1,N/A,,Clear,240,2013-08-30 18:55:00
1:15 PM,93.2,55.4,28,30.16,10.0,South,13.8,-,N/A,,Clear,190,2013-08-30 19:15:00
1:35 PM,93.2,55.4,28,30.15,10.0,SSE,10.4,16.1,N/A,,Clear,150,2013-08-30 19:35:00
1:55 PM,93.2,55.4,28,30.15,10.0,SW,11.5,16.1,N/A,,Partly Cloudy,220,2013-08-30 19:55:00
2:15 PM,93.2,55.4,28,30.14,10.0,West,10.4,-,N/A,,Partly Cloudy,270,2013-08-30 20:15:00
2:35 PM,93.2,55.4,28,30.13,10.0,WSW,12.7,17.3,N/A,,Clear,240,2013-08-30 20:35:00
2:55 PM,93.2,55.4,28,30.12,10.0,WNW,6.9,-,N/A,,Clear,290,2013-08-30 20:55:00
3:15 PM,95.0,55.4,26,30.11,10.0,WSW,10.4,-,N/A,,Partly Cloudy,250,2013-08-30 21:15:00
3:35 PM,93.2,53.6,26,30.11,10.0,West,4.6,-,N/A,,Partly Cloudy,260,2013-08-30 21:35:00
3:55 PM,95.0,53.6,25,30.10,10.0,SSW,9.2,-,N/A,,Clear,210,2013-08-30 21:55:00
4:15 PM,95.0,53.6,25,30.10,10.0,South,9.2,-,N/A,,Mostly Cloudy,190,2013-08-30 22:15:00
4:35 PM,95.0,53.6,25,30.09,10.0,WSW,8.1,-,N/A,,Partly Cloudy,250,2013-08-30 22:35:00
4:55 PM,93.2,53.6,26,30.09,10.0,SSE,9.2,-,N/A,,Scattered Clouds,160,2013-08-30 22:55:00
5:15 PM,93.2,53.6,26,30.09,10.0,SSE,11.5,17.3,N/A,,Mostly Cloudy,160,2013-08-30 23:15:00
5:35 PM,93.2,53.6,26,30.09,10.0,SSE,11.5,-,N/A,,Mostly Cloudy,160,2013-08-30 23:35:00
5:55 PM,93.2,53.6,26,30.09,10.0,SSE,10.4,-,N/A,,Scattered Clouds,160,2013-08-30 23:55:00
6:15 PM,93.2,51.8,24,30.09,10.0,South,9.2,-,N/A,,Partly Cloudy,180,2013-08-31 00:15:00
6:35 PM,91.4,51.8,26,30.09,10.0,South,9.2,-,N/A,,Clear,170,2013-08-31 00:35:00
6:55 PM,89.6,53.6,29,30.09,10.0,South,8.1,-,N/A,,Clear,170,2013-08-31 00:55:00
7:15 PM,87.8,53.6,31,30.08,10.0,South,8.1,-,N/A,,Clear,180,2013-08-31 01:15:00
7:35 PM,84.2,53.6,35,30.09,10.0,South,8.1,-,N/A,,Clear,180,2013-08-31 01:35:00
7:55 PM,82.4,53.6,37,30.09,10.0,South,8.1,-,N/A,,Clear,190,2013-08-31 01:55:00
8:15 PM,82.4,53.6,37,30.09,10.0,South,10.4,-,N/A,,Clear,180,2013-08-31 02:15:00
8:35 PM,80.6,53.6,39,30.10,10.0,South,8.1,-,N/A,,Clear,180,2013-08-31 02:35:00
8:55 PM,78.8,53.6,42,30.10,7.0,South,9.2,-,N/A,,Clear,180,2013-08-31 02:55:00
9:15 PM,78.8,53.6,42,30.11,10.0,South,10.4,-,N/A,,Clear,180,2013-08-31 03:15:00
9:35 PM,77.0,53.6,44,30.11,10.0,South,9.2,-,N/A,,Clear,180,2013-08-31 03:35:00
9:55 PM,75.2,53.6,47,30.11,10.0,South,8.1,-,N/A,,Clear,190,2013-08-31 03:55:00
10:15 PM,75.2,53.6,47,30.11,10.0,South,9.2,-,N/A,,Clear,190,2013-08-31 04:15:00
10:35 PM,75.2,51.8,44,30.11,10.0,SSW,8.1,-,N/A,,Clear,200,2013-08-31 04:35:00
10:55 PM,73.4,51.8,47,30.11,8.0,SSW,8.1,-,N/A,,Clear,200,2013-08-31 04:55:00
11:15 PM,71.6,51.8,50,30.11,10.0,SSW,5.8,-,N/A,,Clear,210,2013-08-31 05:15:00
11:35 PM,71.6,51.8,50,30.11,10.0,SW,8.1,-,N/A,,Clear,220,2013-08-31 05:35:00
11:55 PM,71.6,51.8,50,30.11,10.0,SW,8.1,-,N/A,,Clear,220,2013-08-31 05:55:00